Station Historical Data
Daily Summary for April 2, 2017 Units:  English    Metric   Both
« Previous Day
Next Day »
Daily Weekly Monthly Yearly Custom
  High: Low: Average:
Temperature: 47.8 °F 32.5 °F 40.7 °F
Dew Point: 40.1 °F 29.9 °F 35.1 °F
Humidity: 92% 69% 81%
Wind Speed: 12.0mph 0.0mph 5.1mph
Wind Gust: 21.0mph - -
Wind- - SW
Pressure: 30.22 in 30.10 in -
Precipitation: 0.00 in    
Historical Graphs
 
 
Tabular Data for April 2, 2017
Time Temperature Dew Point Pressure Wind Wind Speed Wind Gust Humidity Rainfall Rate (Hourly)
00:00 34.5 °F 31.6 °F 30.17 in SW 1.0 mph 2.0 mph 89% 0.00 in
00:05 34.3 °F 31.4 °F 30.17 in SW 1.0 mph 2.0 mph 89% 0.00 in
00:10 33.9 °F 31.0 °F 30.16 in SW 1.0 mph 2.0 mph 89% 0.00 in
00:15 33.5 °F 30.9 °F 30.16 in SW 1.0 mph 2.0 mph 90% 0.00 in
00:19 33.3 °F 30.7 °F 30.16 in Calm   2.0 mph 90% 0.00 in
00:25 33.0 °F 30.4 °F 30.16 in Calm     90% 0.00 in
00:30 32.9 °F 30.3 °F 30.17 in Calm     90% 0.00 in
00:35 32.7 °F 30.1 °F 30.17 in Calm     90% 0.00 in
00:40 32.7 °F 30.1 °F 30.17 in Calm     90% 0.00 in
00:45 32.5 °F 29.9 °F 30.17 in SW 1.0 mph 2.0 mph 90% 0.00 in
00:49 32.7 °F 30.4 °F 30.17 in SW 1.0 mph 2.0 mph 91% 0.00 in
00:54 33.0 °F 30.7 °F 30.17 in SSW 1.0 mph 3.0 mph 91% 0.00 in
01:00 33.2 °F 30.9 °F 30.17 in SSW 2.0 mph 6.0 mph 91% 0.00 in
01:05 33.5 °F 31.2 °F 30.17 in SSW 2.0 mph 4.0 mph 91% 0.00 in
01:10 33.7 °F 31.4 °F 30.18 in SSW 2.0 mph 4.0 mph 91% 0.00 in
01:15 33.7 °F 31.4 °F 30.17 in SSW 2.0 mph 3.0 mph 91% 0.00 in
01:20 33.9 °F 31.6 °F 30.17 in South 4.0 mph 5.0 mph 91% 0.00 in
01:25 34.0 °F 31.9 °F 30.17 in SSW 2.0 mph 5.0 mph 92% 0.00 in
01:29 34.2 °F 31.8 °F 30.17 in SSW 2.0 mph 5.0 mph 91% 0.00 in
01:34 34.3 °F 31.9 °F 30.17 in SW 1.0 mph 5.0 mph 91% 0.00 in
01:39 34.4 °F 32.0 °F 30.17 in SSW 1.0 mph 4.0 mph 91% 0.00 in
01:44 34.6 °F 32.2 °F 30.17 in SSW 1.0 mph 6.0 mph 91% 0.00 in
01:49 34.6 °F 32.2 °F 30.17 in SSW 2.0 mph 5.0 mph 91% 0.00 in
01:55 34.5 °F 32.1 °F 30.17 in SW 2.0 mph 5.0 mph 91% 0.00 in
01:59 34.5 °F 32.1 °F 30.17 in SW 2.0 mph 5.0 mph 91% 0.00 in
02:05 34.5 °F 32.1 °F 30.17 in SSW 2.0 mph 5.0 mph 91% 0.00 in
02:10 34.3 °F 31.9 °F 30.17 in SSW 2.0 mph 4.0 mph 91% 0.00 in
02:15 34.3 °F 31.9 °F 30.17 in SW 2.0 mph 5.0 mph 91% 0.00 in
02:20 34.4 °F 32.0 °F 30.17 in SW 4.0 mph 7.0 mph 91% 0.00 in
02:25 34.5 °F 32.1 °F 30.17 in SW 3.0 mph 4.0 mph 91% 0.00 in
02:29 34.6 °F 32.2 °F 30.17 in SW 2.0 mph 5.0 mph 91% 0.00 in
02:35 34.6 °F 32.2 °F 30.18 in SW 3.0 mph 7.0 mph 91% 0.00 in
02:39 34.6 °F 32.2 °F 30.18 in WSW 4.0 mph 6.0 mph 91% 0.00 in
02:44 34.7 °F 32.6 °F 30.17 in SW 1.0 mph 7.0 mph 92% 0.00 in
02:50 34.8 °F 32.4 °F 30.17 in SW 3.0 mph 7.0 mph 91% 0.00 in
02:54 34.8 °F 32.4 °F 30.17 in SW 3.0 mph 8.0 mph 91% 0.00 in
02:59 34.8 °F 32.4 °F 30.17 in SW 4.0 mph 8.0 mph 91% 0.00 in
03:05 34.8 °F 32.4 °F 30.17 in SW 3.0 mph 7.0 mph 91% 0.00 in
03:09 34.8 °F 32.4 °F 30.17 in SW 5.0 mph 6.0 mph 91% 0.00 in
03:15 34.8 °F 32.4 °F 30.17 in SW 4.0 mph 7.0 mph 91% 0.00 in
03:20 34.7 °F 32.3 °F 30.17 in SSW 4.0 mph 6.0 mph 91% 0.00 in
03:25 34.8 °F 32.4 °F 30.17 in SSW 3.0 mph 8.0 mph 91% 0.00 in
03:30 34.8 °F 32.4 °F 30.17 in SSW 4.0 mph 8.0 mph 91% 0.00 in
03:34 34.8 °F 32.4 °F 30.17 in SW 4.0 mph 8.0 mph 91% 0.00 in
03:39 34.8 °F 32.4 °F 30.17 in SW 4.0 mph 7.0 mph 91% 0.00 in
03:45 34.8 °F 32.4 °F 30.17 in SW 4.0 mph 7.0 mph 91% 0.00 in
03:50 34.9 °F 32.5 °F 30.17 in SW 4.0 mph 9.0 mph 91% 0.00 in
03:54 35.0 °F 32.4 °F 30.18 in SW 4.0 mph 9.0 mph 90% 0.00 in
03:59 35.1 °F 32.5 °F 30.18 in SW 6.0 mph 10.0 mph 90% 0.00 in
04:04 35.1 °F 32.5 °F 30.18 in SW 4.0 mph 10.0 mph 90% 0.00 in
04:09 35.2 °F 32.6 °F 30.18 in SW 4.0 mph 9.0 mph 90% 0.00 in
04:14 35.2 °F 32.6 °F 30.18 in SW 4.0 mph 8.0 mph 90% 0.00 in
04:19 35.2 °F 32.6 °F 30.18 in WSW 8.0 mph 9.0 mph 90% 0.00 in
04:25 35.3 °F 32.7 °F 30.18 in SW 4.0 mph 12.0 mph 90% 0.00 in
04:30 35.3 °F 32.7 °F 30.18 in SW 4.0 mph 10.0 mph 90% 0.00 in
04:35 35.4 °F 32.8 °F 30.18 in SW 3.0 mph 8.0 mph 90% 0.00 in
04:39 35.4 °F 32.5 °F 30.18 in SW 5.0 mph 10.0 mph 89% 0.00 in
04:44 35.5 °F 32.6 °F 30.18 in SW 4.0 mph 10.0 mph 89% 0.00 in
04:50 35.4 °F 32.5 °F 30.18 in SW 4.0 mph 9.0 mph 89% 0.00 in
04:55 35.4 °F 32.5 °F 30.19 in SW 4.0 mph 9.0 mph 89% 0.00 in
05:00 35.4 °F 32.5 °F 30.19 in SW 5.0 mph 9.0 mph 89% 0.00 in
05:04 35.3 °F 32.4 °F 30.19 in WSW 5.0 mph 8.0 mph 89% 0.00 in
05:09 35.3 °F 32.4 °F 30.19 in SW 4.0 mph 6.0 mph 89% 0.00 in
05:14 35.2 °F 32.3 °F 30.19 in SW 4.0 mph 7.0 mph 89% 0.00 in
05:19 35.1 °F 32.2 °F 30.18 in SSW 3.0 mph 6.0 mph 89% 0.00 in
05:24 35.0 °F 32.1 °F 30.18 in SSW 2.0 mph 6.0 mph 89% 0.00 in
05:30 35.0 °F 32.1 °F 30.18 in SSW 4.0 mph 6.0 mph 89% 0.00 in
05:34 34.9 °F 32.0 °F 30.19 in SW 2.0 mph 5.0 mph 89% 0.00 in
05:40 34.9 °F 32.0 °F 30.19 in SW 2.0 mph 7.0 mph 89% 0.00 in
05:44 35.0 °F 32.1 °F 30.19 in SW 3.0 mph 7.0 mph 89% 0.00 in
05:49 35.1 °F 32.2 °F 30.19 in SW 3.0 mph 7.0 mph 89% 0.00 in
05:54 35.0 °F 32.1 °F 30.19 in SW 4.0 mph 9.0 mph 89% 0.00 in
06:00 35.2 °F 32.3 °F 30.19 in SW 4.0 mph 9.0 mph 89% 0.00 in
06:05 35.3 °F 32.4 °F 30.19 in SW 5.0 mph 9.0 mph 89% 0.00 in
06:10 35.5 °F 32.6 °F 30.18 in SW 5.0 mph 10.0 mph 89% 0.00 in
06:14 35.6 °F 32.7 °F 30.18 in SSW 5.0 mph 8.0 mph 89% 0.00 in
06:19 35.6 °F 32.7 °F 30.18 in SW 5.0 mph 10.0 mph 89% 0.00 in
06:24 35.7 °F 32.8 °F 30.18 in SSW 7.0 mph 11.0 mph 89% 0.00 in
06:29 35.7 °F 32.8 °F 30.18 in SSW 6.0 mph 12.0 mph 89% 0.00 in
06:34 35.7 °F 33.1 °F 30.19 in WSW 4.0 mph 11.0 mph 90% 0.00 in
06:39 35.9 °F 33.0 °F 30.18 in SW 8.0 mph 11.0 mph 89% 0.00 in
06:44 35.9 °F 33.0 °F 30.19 in SW 4.0 mph 14.0 mph 89% 0.00 in
06:49 36.0 °F 33.4 °F 30.19 in SW 5.0 mph 14.0 mph 90% 0.00 in
06:54 36.1 °F 33.5 °F 30.20 in SW 5.0 mph 10.0 mph 90% 0.00 in
06:59 36.3 °F 33.6 °F 30.20 in SW 6.0 mph 12.0 mph 90% 0.00 in
07:04 36.4 °F 33.5 °F 30.19 in SW 6.0 mph 12.0 mph 89% 0.00 in
07:10 36.6 °F 33.7 °F 30.19 in SW 6.0 mph 11.0 mph 89% 0.00 in
07:15 36.8 °F 33.9 °F 30.19 in SW 6.0 mph 10.0 mph 89% 0.00 in
07:20 37.0 °F 34.1 °F 30.19 in SW 5.0 mph 10.0 mph 89% 0.00 in
07:24 37.1 °F 34.2 °F 30.19 in SW 5.0 mph 11.0 mph 89% 0.00 in
07:29 37.2 °F 34.3 °F 30.20 in SSW 3.0 mph 9.0 mph 89% 0.00 in
07:34 37.4 °F 34.2 °F 30.20 in SW 4.0 mph 9.0 mph 88% 0.00 in
07:39 37.7 °F 34.5 °F 30.20 in SW 3.0 mph 7.0 mph 88% 0.00 in
07:44 37.8 °F 34.6 °F 30.20 in SSW 5.0 mph 11.0 mph 88% 0.00 in
07:49 38.0 °F 34.8 °F 30.20 in SW 6.0 mph 11.0 mph 88% 0.00 in
07:54 38.2 °F 35.0 °F 30.21 in SW 6.0 mph 10.0 mph 88% 0.00 in
07:59 38.4 °F 35.2 °F 30.21 in SW 5.0 mph 13.0 mph 88% 0.00 in
08:04 38.5 °F 35.0 °F 30.21 in SW 6.0 mph 13.0 mph 87% 0.00 in
08:09 38.6 °F 35.1 °F 30.20 in SW 6.0 mph 12.0 mph 87% 0.00 in
08:14 38.7 °F 35.2 °F 30.20 in SW 5.0 mph 10.0 mph 87% 0.00 in
08:19 38.7 °F 35.2 °F 30.20 in SW 5.0 mph 10.0 mph 87% 0.00 in
08:25 38.7 °F 35.2 °F 30.20 in SW 3.0 mph 13.0 mph 87% 0.00 in
08:29 38.7 °F 35.2 °F 30.20 in SW 5.0 mph 13.0 mph 87% 0.00 in
08:34 38.8 °F 35.3 °F 30.20 in SW 5.0 mph 9.0 mph 87% 0.00 in
08:40 39.0 °F 35.5 °F 30.20 in SW 5.0 mph 9.0 mph 87% 0.00 in
08:44 39.2 °F 35.7 °F 30.21 in SW 5.0 mph 12.0 mph 87% 0.00 in
08:49 39.5 °F 36.0 °F 30.21 in WSW 4.0 mph 13.0 mph 87% 0.00 in
08:54 39.8 °F 36.0 °F 30.21 in SW 5.0 mph 11.0 mph 86% 0.00 in
08:59 40.0 °F 36.2 °F 30.21 in SSW 6.0 mph 14.0 mph 86% 0.00 in
09:04 40.3 °F 36.4 °F 30.21 in WSW 8.0 mph 14.0 mph 86% 0.00 in
09:09 40.4 °F 36.5 °F 30.21 in SW 9.0 mph 9.0 mph 86% 0.00 in
09:14 40.7 °F 36.8 °F 30.21 in SW 7.0 mph 13.0 mph 86% 0.00 in
09:19 40.9 °F 36.7 °F 30.21 in WSW 8.0 mph 14.0 mph 85% 0.00 in
09:24 40.9 °F 36.7 °F 30.21 in SW 10.0 mph 14.0 mph 85% 0.00 in
09:29 41.4 °F 37.5 °F 30.21 in West 7.0 mph 15.0 mph 86% 0.00 in
09:34 42.0 °F 37.8 °F 30.21 in WSW 8.0 mph 15.0 mph 85% 0.00 in
09:39 42.0 °F 37.5 °F 30.21 in WSW 8.0 mph 18.0 mph 84% 0.00 in
09:44 42.1 °F 37.3 °F 30.21 in WSW 9.0 mph 18.0 mph 83% 0.00 in
09:50 42.6 °F 37.8 °F 30.22 in WSW 8.0 mph 15.0 mph 83% 0.00 in
09:54 43.2 °F 38.1 °F 30.22 in WSW 7.0 mph 16.0 mph 82% 0.00 in
09:59 43.0 °F 37.6 °F 30.22 in WSW 5.0 mph 17.0 mph 81% 0.00 in
10:04 43.2 °F 38.1 °F 30.22 in West 8.0 mph 14.0 mph 82% 0.00 in
10:09 43.0 °F 37.6 °F 30.22 in WSW 6.0 mph 21.0 mph 81% 0.00 in
10:14 43.1 °F 38.0 °F 30.22 in SW 7.0 mph 14.0 mph 82% 0.00 in
10:19 43.0 °F 37.6 °F 30.22 in NW 8.0 mph 15.0 mph 81% 0.00 in
10:24 42.9 °F 37.5 °F 30.22 in WSW 12.0 mph 18.0 mph 81% 0.00 in
10:29 43.0 °F 37.6 °F 30.22 in WSW 11.0 mph 16.0 mph 81% 0.00 in
10:34 43.5 °F 38.1 °F 30.22 in SW 8.0 mph 15.0 mph 81% 0.00 in
10:39 43.6 °F 37.8 °F 30.22 in SW 8.0 mph 16.0 mph 80% 0.00 in
10:44 43.2 °F 37.4 °F 30.22 in SW 9.0 mph 18.0 mph 80% 0.00 in
10:49 43.2 °F 37.8 °F 30.22 in WSW 10.0 mph 19.0 mph 81% 0.00 in
10:54 43.2 °F 37.4 °F 30.22 in WSW 10.0 mph 19.0 mph 80% 0.00 in
10:59 43.4 °F 37.6 °F 30.22 in WSW 10.0 mph 17.0 mph 80% 0.00 in
11:04 43.9 °F 38.4 °F 30.22 in SSW 4.0 mph 14.0 mph 81% 0.00 in
11:09 44.1 °F 38.0 °F 30.22 in WSW 6.0 mph 17.0 mph 79% 0.00 in
11:14 43.6 °F 37.8 °F 30.22 in SW 9.0 mph 17.0 mph 80% 0.00 in
11:19 43.9 °F 38.1 °F 30.22 in WSW 5.0 mph 16.0 mph 80% 0.00 in
11:24 44.2 °F 38.1 °F 30.21 in SW 7.0 mph 15.0 mph 79% 0.00 in
11:29 44.3 °F 37.9 °F 30.21 in WSW 9.0 mph 15.0 mph 78% 0.00 in
11:34 44.7 °F 38.3 °F 30.21 in WSW 6.0 mph 13.0 mph 78% 0.00 in
11:39 45.2 °F 38.7 °F 30.21 in WSW 6.0 mph 13.0 mph 78% 0.00 in
11:44 45.7 °F 39.2 °F 30.21 in WSW 7.0 mph 13.0 mph 78% 0.00 in
11:49 45.5 °F 38.7 °F 30.21 in SW 7.0 mph 13.0 mph 77% 0.00 in
11:54 45.2 °F 38.4 °F 30.20 in SW 7.0 mph 13.0 mph 77% 0.00 in
11:59 45.8 °F 39.7 °F 30.20 in WSW 8.0 mph 14.0 mph 79% 0.00 in
12:04 45.7 °F 38.9 °F 30.20 in SW 8.0 mph 18.0 mph 77% 0.00 in
12:09 45.2 °F 38.1 °F 30.20 in SW 6.0 mph 16.0 mph 76% 0.00 in
12:14 44.8 °F 38.0 °F 30.20 in South 10.0 mph 19.0 mph 77% 0.00 in
12:19 45.4 °F 38.6 °F 30.20 in SW 9.0 mph 19.0 mph 77% 0.00 in
12:24 45.9 °F 39.1 °F 30.20 in SW 8.0 mph 14.0 mph 77% 0.00 in
12:29 45.6 °F 38.5 °F 30.20 in SW 9.0 mph 20.0 mph 76% 0.00 in
12:34 45.8 °F 38.7 °F 30.20 in SSE 5.0 mph 17.0 mph 76% 0.00 in
12:39 45.6 °F 38.5 °F 30.20 in West 9.0 mph 17.0 mph 76% 0.00 in
12:44 45.3 °F 38.8 °F 30.20 in SW 12.0 mph 16.0 mph 78% 0.00 in
12:49 44.8 °F 38.0 °F 30.20 in SW 9.0 mph 16.0 mph 77% 0.00 in
12:54 45.4 °F 38.9 °F 30.20 in WSW 9.0 mph 15.0 mph 78% 0.00 in
12:59 45.2 °F 38.1 °F 30.20 in SW 9.0 mph 17.0 mph 76% 0.00 in
13:04 44.8 °F 38.0 °F 30.19 in SW 9.0 mph 17.0 mph 77% 0.00 in
13:09 45.7 °F 38.9 °F 30.19 in SW 8.0 mph 17.0 mph 77% 0.00 in
13:14 46.0 °F 39.5 °F 30.19 in SW 8.0 mph 15.0 mph 78% 0.00 in
13:19 45.9 °F 39.1 °F 30.19 in SW 9.0 mph 15.0 mph 77% 0.00 in
13:24 45.7 °F 39.2 °F 30.19 in SW 8.0 mph 16.0 mph 78% 0.00 in
13:29 46.2 °F 39.1 °F 30.19 in WSW 10.0 mph 14.0 mph 76% 0.00 in
13:34 46.7 °F 39.5 °F 30.19 in SSW 7.0 mph 12.0 mph 76% 0.00 in
13:39 46.4 °F 38.9 °F 30.19 in WSW 5.0 mph 15.0 mph 75% 0.00 in
13:44 46.5 °F 39.7 °F 30.19 in WSW 11.0 mph 16.0 mph 77% 0.00 in
13:49 46.1 °F 38.6 °F 30.19 in SW 5.0 mph 16.0 mph 75% 0.00 in
13:54 46.3 °F 38.8 °F 30.19 in SW 10.0 mph 15.0 mph 75% 0.00 in
13:59 46.7 °F 39.5 °F 30.18 in WSW 8.0 mph 15.0 mph 76% 0.00 in
14:04 47.6 °F 40.1 °F 30.19 in WSW 7.0 mph 15.0 mph 75% 0.00 in
14:09 47.3 °F 38.7 °F 30.19 in WSW 7.0 mph 13.0 mph 72% 0.00 in
14:14 47.8 °F 38.8 °F 30.18 in WSW 8.0 mph 15.0 mph 71% 0.00 in
14:19 47.8 °F 39.2 °F 30.18 in WSW 8.0 mph 15.0 mph 72% 0.00 in
14:24 46.7 °F 38.1 °F 30.18 in WSW 7.0 mph 15.0 mph 72% 0.00 in
14:29 46.2 °F 38.0 °F 30.19 in SW 8.0 mph 15.0 mph 73% 0.00 in
14:34 45.7 °F 38.2 °F 30.18 in SW 6.0 mph 12.0 mph 75% 0.00 in
14:39 45.1 °F 37.6 °F 30.19 in WSW 9.0 mph 12.0 mph 75% 0.00 in
14:44 44.6 °F 37.8 °F 30.18 in WSW 9.0 mph 13.0 mph 77% 0.00 in
14:49 44.7 °F 37.6 °F 30.18 in SW 8.0 mph 13.0 mph 76% 0.00 in
14:54 44.7 °F 38.3 °F 30.18 in SW 4.0 mph 11.0 mph 78% 0.00 in
14:59 44.9 °F 38.1 °F 30.18 in West 5.0 mph 10.0 mph 77% 0.00 in
15:04 45.0 °F 37.9 °F 30.18 in SW 6.0 mph 10.0 mph 76% 0.00 in
15:09 46.0 °F 38.9 °F 30.18 in WSW 7.0 mph 11.0 mph 76% 0.00 in
15:14 47.1 °F 38.9 °F 30.18 in WSW 7.0 mph 12.0 mph 73% 0.00 in
15:19 47.8 °F 39.2 °F 30.18 in WSW 7.0 mph 12.0 mph 72% 0.00 in
15:24 47.6 °F 37.9 °F 30.17 in SW 7.0 mph 13.0 mph 69% 0.00 in
15:29 47.3 °F 37.6 °F 30.17 in SW 8.0 mph 13.0 mph 69% 0.00 in
15:34 47.0 °F 38.4 °F 30.17 in SW 4.0 mph 12.0 mph 72% 0.00 in
15:39 47.3 °F 38.0 °F 30.17 in West 4.0 mph 14.0 mph 70% 0.00 in
15:44 47.3 °F 38.0 °F 30.17 in WSW 8.0 mph 12.0 mph 70% 0.00 in
15:49 47.7 °F 38.4 °F 30.17 in SW 7.0 mph 16.0 mph 70% 0.00 in
15:54 47.6 °F 38.3 °F 30.17 in SW 5.0 mph 12.0 mph 70% 0.00 in
15:59 46.5 °F 37.6 °F 30.16 in WSW 10.0 mph 13.0 mph 71% 0.00 in
16:04 46.2 °F 37.3 °F 30.16 in WSW 8.0 mph 16.0 mph 71% 0.00 in
16:09 46.2 °F 37.7 °F 30.16 in WSW 8.0 mph 16.0 mph 72% 0.00 in
16:14 46.4 °F 37.5 °F 30.16 in SW 7.0 mph 13.0 mph 71% 0.00 in
16:19 46.2 °F 37.3 °F 30.16 in SW 6.0 mph 13.0 mph 71% 0.00 in
16:24 46.2 °F 37.7 °F 30.15 in SW 5.0 mph 9.0 mph 72% 0.00 in
16:29 46.4 °F 37.5 °F 30.15 in WSW 6.0 mph 13.0 mph 71% 0.00 in
16:34 46.1 °F 37.2 °F 30.15 in WSW 7.0 mph 16.0 mph 71% 0.00 in
16:39 45.7 °F 37.2 °F 30.15 in West 5.0 mph 12.0 mph 72% 0.00 in
16:44 46.1 °F 36.9 °F 30.15 in SSW 4.0 mph 13.0 mph 70% 0.00 in
16:49 45.9 °F 37.0 °F 30.15 in South 7.0 mph 11.0 mph 71% 0.00 in
16:54 45.8 °F 36.9 °F 30.14 in WSW 7.0 mph 13.0 mph 71% 0.00 in
16:59 45.7 °F 36.8 °F 30.14 in West 7.0 mph 14.0 mph 71% 0.00 in
17:04 46.1 °F 36.9 °F 30.15 in SW 6.0 mph 16.0 mph 70% 0.00 in
17:09 46.7 °F 37.4 °F 30.15 in SW 4.0 mph 13.0 mph 70% 0.00 in
17:14 47.2 °F 37.5 °F 30.14 in WSW 7.0 mph 13.0 mph 69% 0.00 in
17:19 45.9 °F 36.3 °F 30.14 in WSW 7.0 mph 13.0 mph 69% 0.00 in
17:24 45.4 °F 36.5 °F 30.14 in WSW 7.0 mph 13.0 mph 71% 0.00 in
17:29 45.5 °F 36.6 °F 30.14 in WSW 7.0 mph 13.0 mph 71% 0.00 in
17:34 45.9 °F 36.7 °F 30.14 in WSW 6.0 mph 12.0 mph 70% 0.00 in
17:39 45.5 °F 36.6 °F 30.14 in WSW 6.0 mph 12.0 mph 71% 0.00 in
17:44 45.7 °F 37.2 °F 30.13 in SW 6.0 mph 12.0 mph 72% 0.00 in
17:49 45.9 °F 36.7 °F 30.13 in SW 6.0 mph 14.0 mph 70% 0.00 in
17:54 45.8 °F 36.6 °F 30.14 in SW 5.0 mph 9.0 mph 70% 0.00 in
17:59 45.4 °F 35.8 °F 30.14 in SSW 5.0 mph 12.0 mph 69% 0.00 in
18:04 45.4 °F 36.2 °F 30.14 in WSW 5.0 mph 9.0 mph 70% 0.00 in
18:09 45.7 °F 36.5 °F 30.14 in SSW 2.0 mph 9.0 mph 70% 0.00 in
18:14 45.9 °F 36.7 °F 30.14 in SSW 4.0 mph 8.0 mph 70% 0.00 in
18:24 45.4 °F 35.8 °F 30.13 in SW 6.0 mph 11.0 mph 69% 0.00 in
18:29 45.1 °F 35.9 °F 30.13 in SW 6.0 mph 12.0 mph 70% 0.00 in
18:34 44.8 °F 36.0 °F 30.13 in SW 5.0 mph 12.0 mph 71% 0.00 in
18:39 44.5 °F 35.7 °F 30.13 in SW 5.0 mph 11.0 mph 71% 0.00 in
18:44 44.4 °F 35.6 °F 30.13 in SW 6.0 mph 11.0 mph 71% 0.00 in
18:49 44.2 °F 35.4 °F 30.13 in SW 8.0 mph 13.0 mph 71% 0.00 in
18:54 44.1 °F 35.3 °F 30.13 in SW 8.0 mph 13.0 mph 71% 0.00 in
18:59 43.9 °F 35.1 °F 30.13 in WSW 6.0 mph 13.0 mph 71% 0.00 in
19:04 43.6 °F 35.2 °F 30.13 in WSW 6.0 mph 13.0 mph 72% 0.00 in
19:09 43.4 °F 35.0 °F 30.13 in WSW 9.0 mph 12.0 mph 72% 0.00 in
19:14 43.1 °F 35.0 °F 30.13 in SW 8.0 mph 12.0 mph 73% 0.00 in
19:19 42.8 °F 35.1 °F 30.13 in SSE 6.0 mph 9.0 mph 74% 0.00 in
19:24 42.6 °F 34.9 °F 30.12 in WSW 4.0 mph 13.0 mph 74% 0.00 in
19:29 42.4 °F 35.0 °F 30.12 in SW 8.0 mph 9.0 mph 75% 0.00 in
19:34 42.2 °F 35.2 °F 30.12 in SW 5.0 mph 10.0 mph 76% 0.00 in
19:39 42.0 °F 35.0 °F 30.12 in SW 5.0 mph 11.0 mph 76% 0.00 in
19:44 41.9 °F 34.9 °F 30.12 in South 5.0 mph 8.0 mph 76% 0.00 in
19:49 41.9 °F 34.9 °F 30.11 in SSW 4.0 mph 10.0 mph 76% 0.00 in
19:54 41.8 °F 34.8 °F 30.11 in SW 9.0 mph 11.0 mph 76% 0.00 in
19:59 41.8 °F 34.8 °F 30.11 in South 4.0 mph 10.0 mph 76% 0.00 in
20:04 41.7 °F 34.7 °F 30.11 in SW 7.0 mph 8.0 mph 76% 0.00 in
20:09 41.7 °F 34.7 °F 30.11 in SW 4.0 mph 8.0 mph 76% 0.00 in
20:14 41.5 °F 34.8 °F 30.11 in SW 3.0 mph 7.0 mph 77% 0.00 in
20:19 41.3 °F 34.6 °F 30.11 in SW 3.0 mph 7.0 mph 77% 0.00 in
20:24 41.2 °F 34.9 °F 30.11 in South 4.0 mph 9.0 mph 78% 0.00 in
20:29 41.1 °F 34.8 °F 30.12 in WSW 9.0 mph 9.0 mph 78% 0.00 in
20:34 41.1 °F 34.8 °F 30.12 in SW 2.0 mph 9.0 mph 78% 0.00 in
20:39 41.1 °F 34.8 °F 30.12 in SW 4.0 mph 9.0 mph 78% 0.00 in
20:44 41.1 °F 34.8 °F 30.11 in SW 4.0 mph 8.0 mph 78% 0.00 in
20:49 41.3 °F 35.0 °F 30.11 in WSW 2.0 mph 7.0 mph 78% 0.00 in
20:54 41.3 °F 35.0 °F 30.11 in SSW 2.0 mph 7.0 mph 78% 0.00 in
20:59 41.5 °F 34.8 °F 30.12 in SW 2.0 mph 8.0 mph 77% 0.00 in
21:04 41.6 °F 34.9 °F 30.11 in SW 4.0 mph 8.0 mph 77% 0.00 in
21:09 41.8 °F 34.8 °F 30.12 in WSW 2.0 mph 7.0 mph 76% 0.00 in
21:14 41.8 °F 34.8 °F 30.12 in SW 4.0 mph 7.0 mph 76% 0.00 in
21:19 41.8 °F 34.8 °F 30.12 in SW 3.0 mph 6.0 mph 76% 0.00 in
21:24 41.8 °F 34.5 °F 30.12 in SW 3.0 mph 8.0 mph 75% 0.00 in
21:29 41.8 °F 34.5 °F 30.12 in SW 4.0 mph 8.0 mph 75% 0.00 in
21:34 41.8 °F 34.5 °F 30.12 in SW 4.0 mph 6.0 mph 75% 0.00 in
21:39 41.8 °F 34.5 °F 30.12 in SW 4.0 mph 8.0 mph 75% 0.00 in
21:44 41.9 °F 34.2 °F 30.12 in WSW 4.0 mph 8.0 mph 74% 0.00 in
21:49 41.8 °F 34.1 °F 30.12 in SW 3.0 mph 5.0 mph 74% 0.00 in
21:54 41.7 °F 34.0 °F 30.12 in SW 3.0 mph 7.0 mph 74% 0.00 in
21:59 41.6 °F 33.9 °F 30.12 in West 3.0 mph 5.0 mph 74% 0.00 in
22:04 41.6 °F 33.9 °F 30.12 in South 3.0 mph 7.0 mph 74% 0.00 in
22:09 41.4 °F 34.1 °F 30.11 in SW 4.0 mph 6.0 mph 75% 0.00 in
22:14 41.4 °F 34.1 °F 30.11 in SW 2.0 mph 6.0 mph 75% 0.00 in
22:19 41.2 °F 33.5 °F 30.11 in SW 2.0 mph 6.0 mph 74% 0.00 in
22:24 41.0 °F 33.7 °F 30.11 in SW 2.0 mph 5.0 mph 75% 0.00 in
22:29 41.0 °F 33.7 °F 30.12 in SSW 2.0 mph 7.0 mph 75% 0.00 in
22:34 41.1 °F 33.8 °F 30.12 in SW 2.0 mph 5.0 mph 75% 0.00 in
22:39 41.2 °F 33.9 °F 30.12 in WSW 4.0 mph 5.0 mph 75% 0.00 in
22:44 41.3 °F 33.6 °F 30.12 in SW 2.0 mph 5.0 mph 74% 0.00 in
22:49 41.2 °F 33.5 °F 30.11 in SW 1.0 mph 5.0 mph 74% 0.00 in
22:54 41.1 °F 33.8 °F 30.11 in SW 2.0 mph 5.0 mph 75% 0.00 in
22:59 40.9 °F 33.6 °F 30.12 in SW 2.0 mph 5.0 mph 75% 0.00 in
23:04 41.0 °F 33.3 °F 30.13 in SW 3.0 mph 6.0 mph 74% 0.00 in
23:09 41.2 °F 33.5 °F 30.12 in SW 3.0 mph 6.0 mph 74% 0.00 in
23:14 41.3 °F 33.6 °F 30.12 in SW 3.0 mph 6.0 mph 74% 0.00 in
23:19 41.1 °F 33.4 °F 30.11 in SW 3.0 mph 5.0 mph 74% 0.00 in
23:24 41.1 °F 33.4 °F 30.12 in SW 3.0 mph 6.0 mph 74% 0.00 in
23:29 41.0 °F 33.3 °F 30.11 in SW 1.0 mph 4.0 mph 74% 0.00 in
23:34 40.9 °F 33.2 °F 30.11 in SW 1.0 mph 4.0 mph 74% 0.00 in
23:39 41.1 °F 33.4 °F 30.11 in SSW 2.0 mph 5.0 mph 74% 0.00 in
23:44 40.7 °F 33.1 °F 30.10 in Calm   2.0 mph 74% 0.00 in
23:49 40.3 °F 33.0 °F 30.10 in Calm     75% 0.00 in
23:54 40.0 °F 32.7 °F 30.10 in Calm     75% 0.00 in
23:59 39.5 °F 32.6 °F 30.10 in Calm     76% 0.00 in
Buffalo, New York, USA
Compliments of Weather Underground - 2.5 mb